Current Weather

Blythe

Blythe, California (KBLH)

Report from: Thursday, July 18, 2024 6:52 AM PDT
Current time: Thursday, July 18, 2024 7:25 AM PDT

Nearby weather – Weather history – Daily summaries
Weather forecast

Temperature32.2°C (90.0°F)
Heat index32.0°C (89.6°F)
Dew point15.6°C (60.1°F)
Winds Calm
Visibility10 mi. (16.1 km)
Clouds Sky clear
Altimeter29.84 in.Hg (1010 mB)
Relative humidity37 %
Density altitude2,330 ft. (710 m)
Sea-level pressure101.0 kPa (1010 mB, 29.81 in.Hg)
Remarks Fully automated report
Automated weather observing station with precipitation discriminator
Flight conditions Visual Meteorological Conditions
Raw dataKBLH 181352Z AUTO 00000KT 10SM CLR 32/16 A2984 RMK AO2 SLP096 T03220156
An error has occurred. This application may no longer respond until reloaded. Reload 🗙